Time;durP1;ratioP1;P1;durP2;ratioP2;P2;SDS_P1;SDS_P2;PMS_P1;PMS_P2;Temp;Humidity;BMP_temperature;BMP_pressure;BME280_temperature;BME280_humidity;BME280_pressure;Samples;Min_cycle;Max_cycle;Signal;HPM_P1;HPM_P2
2021/10/18 00:01:16;;;;;;;1.90;0.93;;;;;;;9.62;68.04;99538.50;5133883;27;41143;-83
2021/10/18 00:03:44;;;;;;;2.37;1.53;;;;;;;9.67;67.98;99563.78;5135217;27;39386;-83
2021/10/18 00:06:11;;;;;;;1.10;0.80;;;;;;;9.39;68.20;99531.66;5135243;27;41681;-84
2021/10/18 00:08:39;;;;;;;0.90;0.80;;;;;;;9.54;67.91;99567.94;5160017;27;42506;-83
2021/10/18 00:11:06;;;;;;;1.07;1.00;;;;;;;9.52;68.04;99567.16;5159529;27;41164;-83
2021/10/18 00:13:34;;;;;;;1.40;1.10;;;;;;;9.40;68.21;99549.22;5176394;27;39683;-83
2021/10/18 00:16:02;;;;;;;2.17;1.50;;;;;;;9.37;68.62;99559.94;5176527;27;41506;-83
2021/10/18 00:18:31;;;;;;;1.20;1.10;;;;;;;9.26;68.41;99555.16;5175920;27;43539;-83
2021/10/18 00:20:59;;;;;;;2.67;0.97;;;;;;;9.32;68.64;99567.22;5159167;27;41355;-83
2021/10/18 00:23:27;;;;;;;2.50;1.50;;;;;;;9.23;68.71;99563.22;5165750;27;38864;-82
2021/10/18 00:25:54;;;;;;;1.73;1.10;;;;;;;9.22;69.14;99565.94;5197387;27;41687;-82
2021/10/18 00:28:22;;;;;;;3.90;1.63;;;;;;;9.13;69.25;99561.06;5214496;27;43646;-82
2021/10/18 00:30:50;;;;;;;2.13;1.23;;;;;;;9.00;69.09;99552.84;5212698;27;42996;-83
2021/10/18 00:33:17;;;;;;;3.50;1.17;;;;;;;9.05;69.23;99565.81;5195324;27;40916;-82
2021/10/18 00:35:46;;;;;;;1.27;0.97;;;;;;;8.95;69.60;99563.59;5174099;27;42204;-83
2021/10/18 00:38:14;;;;;;;1.20;1.10;;;;;;;8.92;69.65;99563.75;5177161;27;43082;-83
2021/10/18 00:40:42;;;;;;;1.57;1.40;;;;;;;8.89;69.76;99574.47;5196170;27;42601;-83
2021/10/18 00:43:10;;;;;;;1.43;1.23;;;;;;;8.79;69.81;99567.84;5195538;27;39657;-82
2021/10/18 00:45:38;;;;;;;1.50;1.23;;;;;;;8.72;70.03;99554.97;5160135;27;41487;-83
2021/10/18 00:48:07;;;;;;;2.20;1.57;;;;;;;8.49;69.82;99532.22;5157828;27;42313;-84
2021/10/18 00:50:35;;;;;;;1.40;1.00;;;;;;;8.59;69.84;99549.38;5158158;27;41450;-84
2021/10/18 00:53:05;;;;;;;2.17;1.50;;;;;;;8.52;69.81;99547.94;5158449;27;39126;-82
2021/10/18 00:55:33;;;;;;;2.30;1.57;;;;;;;8.51;69.96;99559.41;5159074;27;41350;-83
2021/10/18 00:58:01;;;;;;;2.83;1.40;;;;;;;8.15;69.73;99507.25;5157626;27;43395;-83
2021/10/18 01:00:28;;;;;;;2.13;1.40;;;;;;;8.28;69.76;99545.38;5158118;27;42185;-83
2021/10/18 01:02:56;;;;;;;2.73;1.33;;;;;;;8.37;69.86;99569.69;5158270;27;40043;-82
2021/10/18 01:05:24;;;;;;;1.60;1.23;;;;;;;7.99;69.72;99516.72;5155185;27;41090;-82
2021/10/18 01:07:52;;;;;;;1.70;1.33;;;;;;;8.28;69.95;99576.19;5140943;27;41556;-82
2021/10/18 01:10:20;;;;;;;2.60;1.60;;;;;;;8.15;70.11;99567.94;5136287;27;42060;-82
2021/10/18 01:12:48;;;;;;;1.20;1.10;;;;;;;8.16;69.87;99576.72;5154203;27;39971;-83
2021/10/18 01:15:16;;;;;;;2.43;1.07;;;;;;;8.05;69.92;99558.66;5136050;27;40593;-82
2021/10/18 01:17:43;;;;;;;1.37;0.97;;;;;;;7.88;70.37;99546.19;5157648;27;41517;-82
2021/10/18 01:20:14;;;;;;;2.23;1.23;;;;;;;8.05;70.23;99579.75;5140043;27;41554;-81
2021/10/18 01:22:43;;;;;;;1.30;1.13;;;;;;;7.91;70.23;99561.03;5158379;27;40493;-83
2021/10/18 01:25:11;;;;;;;2.27;1.40;;;;;;;7.82;70.53;99553.47;5139731;27;40654;-82
2021/10/18 01:27:39;;;;;;;0.87;0.80;;;;;;;7.84;70.48;99568.31;5157939;27;43203;-83
2021/10/18 01:30:07;;;;;;;3.43;1.93;;;;;;;7.91;70.41;99584.75;5140410;27;43150;-86
2021/10/18 01:32:38;;;;;;;1.10;1.00;;;;;;;7.77;70.57;99566.00;5141692;27;39066;-85
2021/10/18 01:35:11;;;;;;;1.50;0.93;;;;;;;7.64;70.59;99552.44;5139593;27;41230;-84
2021/10/18 01:38:13;;;;;;;2.20;1.33;;;;;;;7.62;70.87;99548.13;5157554;27;42719;-84
2021/10/18 01:41:10;;;;;;;2.53;1.20;;;;;;;7.70;70.95;99575.03;5109667;27;41537;-84
2021/10/18 01:43:58;;;;;;;1.20;0.97;;;;;;;7.73;70.98;99593.38;5099455;27;39083;-84
2021/10/18 01:46:26;;;;;;;1.83;1.27;;;;;;;7.40;70.81;99543.72;5098871;27;41788;-83
2021/10/18 01:48:54;;;;;;;2.77;1.57;;;;;;;7.33;70.95;99536.09;5098785;27;41533;-84
2021/10/18 01:51:41;;;;;;;1.33;1.20;;;;;;;7.48;71.63;99561.84;5098660;27;41200;-83
2021/10/18 01:54:32;;;;;;;2.33;1.50;;;;;;;7.59;71.57;99591.28;5098060;27;38998;-84
2021/10/18 01:57:16;;;;;;;3.43;1.40;;;;;;;7.42;71.47;99562.94;5099015;27;40880;-83
2021/10/18 01:59:45;;;;;;;1.63;1.53;;;;;;;7.60;71.38;99602.69;5099334;27;42250;-84
2021/10/18 02:02:13;;;;;;;2.20;1.70;;;;;;;7.55;71.15;99606.34;5098774;27;41621;-84
2021/10/18 02:04:41;;;;;;;1.73;1.30;;;;;;;7.54;71.55;99604.63;5098538;27;40360;-84
2021/10/18 02:14:37;;;;;;;2.47;1.20;;;;;;;7.39;72.00;99599.97;5119095;27;39513;-83
2021/10/18 02:19:54;;;;;;;2.50;1.47;;;;;;;7.16;71.95;99569.22;5101607;27;40530;-83
2021/10/18 02:22:21;;;;;;;4.50;2.37;;;;;;;7.24;72.05;99590.00;5102720;27;42454;-84
2021/10/18 02:24:50;;;;;;;4.10;2.57;;;;;;;7.20;72.24;99577.84;5102806;27;41672;-84
2021/10/18 02:30:03;;;;;;;3.67;2.17;;;;;;;7.30;72.12;99595.00;5098167;27;41690;-82
2021/10/18 02:32:30;;;;;;;6.80;2.50;;;;;;;7.29;71.99;99589.81;5098479;27;41697;-82
2021/10/18 02:34:59;;;;;;;5.80;2.60;;;;;;;7.27;72.03;99584.63;5132138;27;40851;-82
2021/10/18 02:37:26;;;;;;;4.47;2.20;;;;;;;7.26;72.41;99587.31;5098883;27;39281;-81
2021/10/18 02:39:54;;;;;;;11.23;2.40;;;;;;;7.21;72.68;99587.47;5134236;27;42622;-81
2021/10/18 02:42:21;;;;;;;5.37;2.20;;;;;;;7.22;72.59;99592.69;5117209;27;42936;-82
2021/10/18 02:44:49;;;;;;;4.80;2.20;;;;;;;7.10;73.19;99571.19;5116802;27;42305;-82
2021/10/18 02:47:18;;;;;;;3.87;2.23;;;;;;;7.12;73.09;99582.53;5134277;27;40947;-82
2021/10/18 02:49:46;;;;;;;6.93;2.27;;;;;;;7.06;72.91;99574.84;5116304;27;41643;-82
2021/10/18 02:52:13;;;;;;;2.10;1.63;;;;;;;7.14;73.70;99593.88;5132668;27;42259;-81
2021/10/18 02:54:41;;;;;;;3.83;1.80;;;;;;;7.06;73.90;99577.47;5115017;27;41517;-82
2021/10/18 02:57:09;;;;;;;3.23;1.80;;;;;;;7.08;73.54;99583.56;5119845;27;40223;-82
2021/10/18 02:59:38;;;;;;;1.90;1.20;;;;;;;7.07;73.53;99592.38;5107608;27;41905;-82
2021/10/18 03:02:06;;;;;;;1.70;1.23;;;;;;;7.04;73.60;99608.31;5121242;27;41877;-82
2021/10/18 03:04:35;;;;;;;1.47;1.20;;;;;;;7.03;73.45;99609.22;5097913;27;42255;-82
2021/10/18 03:07:02;;;;;;;2.17;1.60;;;;;;;6.99;73.34;99602.34;5112778;27;40289;-82
2021/10/18 03:09:30;;;;;;;2.67;1.33;;;;;;;6.96;73.51;99599.81;5112075;27;42689;-83
2021/10/18 03:11:58;;;;;;;1.40;1.30;;;;;;;6.89;73.29;99595.69;5112218;27;42781;-83
2021/10/18 03:14:25;;;;;;;1.83;1.30;;;;;;;6.82;73.09;99601.16;5078118;27;42181;-82
2021/10/18 03:16:53;;;;;;;1.63;1.30;;;;;;;6.76;73.04;99590.00;5095436;27;40631;-82
2021/10/18 03:19:20;;;;;;;1.47;1.20;;;;;;;6.75;73.11;99601.44;5114509;27;41521;-82
2021/10/18 03:21:50;;;;;;;1.50;1.40;;;;;;;6.78;72.98;99611.88;5115231;27;43550;-83
2021/10/18 03:24:17;;;;;;;2.20;1.30;;;;;;;6.73;73.15;99614.66;5094760;27;42157;-82
2021/10/18 03:26:45;;;;;;;1.60;1.07;;;;;;;6.68;73.00;99616.56;5094594;28;38918;-82
2021/10/18 03:29:12;;;;;;;1.33;1.17;;;;;;;6.46;73.12;99579.59;5095740;27;42044;-82
2021/10/18 03:31:40;;;;;;;2.17;1.23;;;;;;;6.52;73.30;99594.34;5096565;28;42766;-82
2021/10/18 03:34:07;;;;;;;1.70;1.60;;;;;;;6.64;73.02;99609.72;5114878;27;42755;-81
2021/10/18 03:36:35;;;;;;;2.40;1.30;;;;;;;6.66;73.72;99615.78;5095573;28;39146;-81
2021/10/18 03:39:04;;;;;;;2.10;1.90;;;;;;;6.62;73.77;99616.78;5078687;28;40277;-82
2021/10/18 03:41:32;;;;;;;1.63;1.30;;;;;;;6.56;73.79;99627.50;5078583;28;41775;-82
2021/10/18 03:44:01;;;;;;;1.50;1.27;;;;;;;6.59;74.08;99626.56;5099966;28;41302;-83
2021/10/18 03:46:28;;;;;;;1.57;1.43;;;;;;;6.58;74.10;99628.31;5096146;27;38968;-82
2021/10/18 03:48:56;;;;;;;3.27;1.60;;;;;;;6.57;73.79;99639.75;5124174;27;41759;-82
2021/10/18 03:51:24;;;;;;;1.33;1.03;;;;;;;6.58;73.93;99638.00;5094280;27;43829;-82
2021/10/18 03:53:53;;;;;;;1.20;1.10;;;;;;;6.44;73.67;99618.25;5110875;27;41149;-82
2021/10/18 03:56:22;;;;;;;1.60;1.50;;;;;;;6.55;73.73;99638.13;5135959;27;40187;-83
2021/10/18 03:58:49;;;;;;;0.80;0.80;;;;;;;6.53;73.50;99645.19;5102786;27;40886;-82
2021/10/18 04:01:17;;;;;;;1.67;1.30;;;;;;;6.57;73.14;99657.31;5115599;27;42947;-83
2021/10/18 04:03:45;;;;;;;3.03;1.50;;;;;;;6.50;73.43;99648.78;5113972;27;42468;-82
2021/10/18 04:06:12;;;;;;;2.10;1.67;;;;;;;6.49;73.56;99637.41;5116776;27;39788;-82
2021/10/18 04:08:40;;;;;;;1.33;0.97;;;;;;;6.60;73.67;99655.47;5076960;28;40997;-82
2021/10/18 04:11:08;;;;;;;2.87;1.80;;;;;;;6.47;73.53;99644.47;5107732;27;41446;-82
2021/10/18 04:13:37;;;;;;;2.27;1.40;;;;;;;6.58;73.71;99659.91;5092388;27;41835;-82
2021/10/18 04:16:05;;;;;;;1.37;1.27;;;;;;;6.39;73.79;99637.75;5097231;27;39238;-82
2021/10/18 04:18:32;;;;;;;0.97;0.97;;;;;;;6.55;73.52;99669.69;5132736;27;41862;-82
2021/10/18 04:21:01;;;;;;;1.13;1.00;;;;;;;6.51;73.59;99671.56;5114323;27;41354;-82
2021/10/18 04:23:29;;;;;;;1.03;0.93;;;;;;;6.44;73.53;99670.03;5093065;28;41088;-83
2021/10/18 04:25:57;;;;;;;1.63;1.13;;;;;;;6.42;73.57;99666.63;5077007;27;38681;-81
2021/10/18 04:28:27;;;;;;;2.90;1.23;;;;;;;6.38;73.37;99671.09;5077712;27;40595;-82
2021/10/18 04:30:56;;;;;;;3.63;1.83;;;;;;;6.15;73.54;99641.19;5112418;27;42706;-82
2021/10/18 04:33:23;;;;;;;1.50;1.40;;;;;;;6.36;73.38;99682.56;5093618;28;42421;-82
2021/10/18 04:35:51;;;;;;;1.60;1.50;;;;;;;6.31;73.51;99680.09;5105895;27;40195;-82
2021/10/18 04:38:19;;;;;;;1.90;1.30;;;;;;;6.32;73.96;99678.31;5113465;27;42011;-81
2021/10/18 04:40:46;;;;;;;2.23;1.40;;;;;;;6.21;74.13;99669.91;5113757;27;44277;-82
2021/10/18 04:43:14;;;;;;;2.47;1.40;;;;;;;6.28;74.04;99680.22;5131276;27;42291;-82
2021/10/18 04:45:41;;;;;;;1.50;1.40;;;;;;;6.30;73.56;99702.06;5113358;27;40113;-81
2021/10/18 04:48:10;;;;;;;1.53;1.43;;;;;;;6.29;73.72;99699.47;5098322;27;40666;-82
2021/10/18 04:50:38;;;;;;;1.43;1.33;;;;;;;6.17;73.72;99686.72;5078225;28;41515;-80
2021/10/18 04:53:05;;;;;;;2.30;1.53;;;;;;;6.29;73.36;99702.97;5114845;27;42367;-82
2021/10/18 04:55:33;;;;;;;2.70;1.23;;;;;;;6.22;73.51;99682.16;5097452;27;39276;-82
2021/10/18 04:58:04;;;;;;;2.00;1.40;;;;;;;6.33;73.52;99698.44;5079319;28;40648;-81
2021/10/18 05:00:36;;;;;;;1.50;1.40;;;;;;;6.23;73.58;99675.97;5084660;27;44866;-82
2021/10/18 05:03:04;;;;;;;1.57;1.47;;;;;;;6.44;73.55;99717.38;5100166;27;42725;-82
2021/10/18 05:05:34;;;;;;;1.77;1.03;;;;;;;6.48;73.59;99713.75;5099315;27;38884;-82
2021/10/18 08:11:18;;;;;;;4.83;3.20;;;;;;;7.88;87.02;99867.06;5101407;27;20586;-79
2021/10/18 08:13:46;;;;;;;5.97;4.30;;;;;;;8.38;85.18;99864.41;5045927;28;39671;-81
2021/10/18 08:16:14;;;;;;;6.00;3.90;;;;;;;8.99;82.45;99879.59;5028023;28;42114;-79
2021/10/18 08:18:42;;;;;;;4.33;3.40;;;;;;;9.43;80.05;99882.19;5045249;28;44036;-76
2021/10/18 08:21:12;;;;;;;5.37;3.57;;;;;;;9.75;77.67;99887.94;5034708;28;40968;-79
2021/10/18 08:23:39;;;;;;;5.47;3.23;;;;;;;10.01;76.52;99879.75;5063520;28;41458;-84
2021/10/18 08:26:07;;;;;;;4.70;3.40;;;;;;;10.25;75.43;99873.38;5061898;28;42259;-82
2021/10/18 08:28:36;;;;;;;4.93;3.53;;;;;;;10.53;74.60;99885.34;5060322;28;41461;-78
2021/10/18 08:31:04;;;;;;;4.80;2.83;;;;;;;10.69;74.02;99889.03;5056890;28;43367;-78
2021/10/18 08:33:32;;;;;;;7.83;3.03;;;;;;;10.84;73.06;99877.72;5054970;28;39505;-79
2021/10/18 08:36:04;;;;;;;5.60;3.77;;;;;;;11.06;71.60;99882.84;5027852;28;41085;-81
2021/10/18 08:38:46;;;;;;;6.83;3.77;;;;;;;11.25;71.50;99882.81;5048588;28;42918;-80
2021/10/18 08:41:17;;;;;;;6.37;3.40;;;;;;;11.39;70.60;99882.97;5028602;28;41479;-78
2021/10/18 08:49:18;;;;;;;5.53;3.37;;;;;;;11.42;68.65;99885.50;5043300;28;42787;-83
2021/10/18 08:52:01;;;;;;;6.73;3.77;;;;;;;11.25;69.17;99858.97;5042837;28;42265;-82
2021/10/18 08:54:29;;;;;;;3.83;3.03;;;;;;;11.30;69.31;99854.28;5028308;28;38741;-84
2021/10/18 08:56:57;;;;;;;4.60;3.60;;;;;;;11.65;69.17;99889.66;5044304;28;41722;-81
2021/10/18 08:59:27;;;;;;;6.90;3.40;;;;;;;11.82;68.79;99892.34;5066054;28;42254;-77
2021/10/18 09:01:56;;;;;;;6.47;3.87;;;;;;;11.93;68.59;99883.81;5082685;28;42153;-82
2021/10/18 09:04:26;;;;;;;4.87;3.53;;;;;;;12.02;68.42;99888.66;5084435;28;40076;-81
2021/10/18 09:06:56;;;;;;;6.63;3.77;;;;;;;12.05;67.68;99880.53;5083619;28;41893;-81
2021/10/18 09:09:25;;;;;;;5.03;2.83;;;;;;;12.19;67.26;99883.34;5067112;28;41673;-81
2021/10/18 09:11:54;;;;;;;4.80;3.40;;;;;;;12.30;67.61;99880.97;5066659;28;41050;-79
2021/10/18 09:14:22;;;;;;;8.67;5.00;;;;;;;12.44;66.74;99882.88;5067081;28;38818;-80
2021/10/18 09:16:51;;;;;;;7.17;4.23;;;;;;;12.56;66.78;99883.09;5117298;27;41559;-77
2021/10/18 09:19:23;;;;;;;6.03;3.60;;;;;;;12.34;66.57;99818.78;5085162;28;44572;-80
2021/10/18 09:21:53;;;;;;;4.83;3.83;;;;;;;12.78;66.15;99876.59;5055727;28;41265;-78
2021/10/18 09:24:39;;;;;;;7.27;4.63;;;;;;;12.83;66.11;99879.84;5053103;28;38932;-79
2021/10/18 09:27:09;;;;;;;7.93;4.20;;;;;;;12.86;66.28;99874.34;5069261;28;42209;-79
2021/10/18 09:29:39;;;;;;;4.23;2.93;;;;;;;12.95;65.46;99879.19;5053454;28;41868;-81
2021/10/18 09:32:08;;;;;;;5.77;3.67;;;;;;;13.05;65.39;99879.50;5068573;28;42319;-78
2021/10/18 09:34:37;;;;;;;5.07;3.27;;;;;;;13.10;65.07;99888.97;5103743;27;41073;-78
2021/10/18 09:37:07;;;;;;;7.50;4.10;;;;;;;13.16;65.12;99880.66;5052642;28;40760;-80
2021/10/18 09:39:34;;;;;;;8.67;3.43;;;;;;;13.25;64.91;99876.59;5071646;28;43030;-78
2021/10/18 09:42:04;;;;;;;7.60;5.27;;;;;;;13.25;64.58;99858.84;5072974;28;41739;-79
2021/10/18 09:45:09;;;;;;;5.87;3.50;;;;;;;13.48;64.28;99883.25;5049384;28;40694;-81
2021/10/18 10:53:05;;;;;;;7.53;4.03;;;;;;;14.33;63.11;99900.31;5042103;28;39213;-81
2021/10/18 10:55:43;;;;;;;8.07;4.17;;;;;;;14.24;62.90;99873.38;5068637;28;41829;-82
2021/10/18 10:58:33;;;;;;;7.40;4.10;;;;;;;14.49;62.57;99902.06;5050913;28;41672;-79
2021/10/18 11:01:01;;;;;;;9.00;4.73;;;;;;;14.46;62.29;99889.81;5067044;28;41569;-84
2021/10/18 11:03:40;;;;;;;9.00;4.03;;;;;;;14.59;62.47;99906.72;5069285;28;39795;-78
2021/10/18 11:06:13;;;;;;;6.50;4.33;;;;;;;14.64;62.41;99899.31;5066450;28;42188;-79
2021/10/18 11:08:42;;;;;;;10.43;5.33;;;;;;;14.77;61.95;99904.72;5067395;28;43828;-79
2021/10/18 11:11:14;;;;;;;14.30;6.63;;;;;;;14.89;61.79;99893.28;5068213;28;42947;-78
2021/10/18 11:13:51;;;;;;;9.07;4.93;;;;;;;15.04;61.56;99889.63;5098408;27;39714;-78
2021/10/18 11:16:22;;;;;;;9.37;4.87;;;;;;;15.11;60.61;99892.75;5065659;28;41833;-82
2021/10/18 11:18:51;;;;;;;8.50;4.47;;;;;;;15.17;61.01;99886.19;5051771;28;41880;-82
2021/10/18 11:21:21;;;;;;;10.80;5.10;;;;;;;15.28;61.07;99900.53;5050421;28;41197;-79
2021/10/18 11:23:58;;;;;;;8.47;4.30;;;;;;;15.20;60.82;99873.50;5068560;28;40248;-80
2021/10/18 11:29:13;;;;;;;9.07;5.50;;;;;;;15.39;60.47;99849.97;5057534;28;42456;-82
2021/10/18 11:31:43;;;;;;;10.97;5.90;;;;;;;15.64;60.19;99853.69;5055356;28;41274;-80
2021/10/18 11:34:12;;;;;;;13.27;6.80;;;;;;;15.88;58.92;99878.75;5067757;28;40921;-79
2021/10/18 11:36:42;;;;;;;11.80;5.93;;;;;;;15.99;58.34;99881.53;5067163;28;41839;-80
2021/10/18 11:39:13;;;;;;;11.40;6.50;;;;;;;16.22;58.67;99873.75;5068476;28;42877;-80
2021/10/18 11:42:13;;;;;;;11.80;7.03;;;;;;;16.36;57.36;99881.66;5067292;28;41049;-78
2021/10/18 11:44:43;;;;;;;11.13;5.77;;;;;;;16.48;57.10;99878.97;5067598;28;40332;-81
2021/10/18 11:47:29;;;;;;;11.37;6.60;;;;;;;16.57;56.98;99858.75;5066740;28;42031;-80
2021/10/18 11:50:19;;;;;;;10.73;5.53;;;;;;;16.85;56.09;99877.25;5080458;28;41620;-80
2021/10/18 11:52:58;;;;;;;10.33;5.30;;;;;;;17.07;56.49;99867.66;5080416;28;41682;-80
2021/10/18 11:55:29;;;;;;;10.37;5.60;;;;;;;17.30;55.90;99874.88;5047984;28;39109;-82
2021/10/18 11:57:59;;;;;;;11.03;6.10;;;;;;;17.50;55.51;99881.41;5066586;28;41499;-79
2021/10/18 12:00:30;;;;;;;8.93;5.13;;;;;;;17.64;55.41;99872.38;5047228;28;44655;-78
2021/10/18 12:03:03;;;;;;;10.07;5.63;;;;;;;17.73;54.84;99869.00;5066570;28;42220;-82
2021/10/18 12:05:38;;;;;;;11.43;6.10;;;;;;;17.80;54.92;99857.69;5065302;28;39537;-83
2021/10/18 12:08:07;;;;;;;10.93;6.27;;;;;;;17.74;54.15;99843.91;5100116;27;41711;-85
2021/10/18 12:10:35;;;;;;;12.47;6.53;;;;;;;17.92;53.90;99854.09;5066110;28;42895;-82
2021/10/18 12:13:07;;;;;;;11.00;5.60;;;;;;;17.91;53.80;99852.38;5049183;28;42334;-84
2021/10/18 12:15:39;;;;;;;11.30;6.37;;;;;;;17.76;53.32;99860.72;5068297;28;40080;-79
2021/10/18 12:18:07;;;;;;;13.20;6.73;;;;;;;17.55;53.36;99850.66;5066540;28;41540;-80
2021/10/18 12:20:35;;;;;;;13.43;6.90;;;;;;;17.49;53.19;99845.75;5049129;28;42941;-80
2021/10/18 12:23:06;;;;;;;39.67;20.97;;;;;;;17.47;53.68;99839.63;5064529;28;42238;-80
2021/10/18 12:25:34;;;;;;;16.73;8.83;;;;;;;17.43;53.76;99838.16;5067554;28;40435;-80
2021/10/18 12:28:28;;;;;;;12.83;7.17;;;;;;;17.35;54.37;99811.09;5049668;28;40584;-82
2021/10/18 12:30:59;;;;;;;13.43;7.27;;;;;;;17.24;54.56;99798.53;5099503;27;42988;-81
2021/10/18 12:33:36;;;;;;;12.80;7.27;;;;;;;17.28;54.15;99820.56;5065385;28;43029;-79
2021/10/18 12:36:04;;;;;;;11.30;6.07;;;;;;;17.22;54.59;99821.88;5050553;28;38992;-78
2021/10/18 12:38:36;;;;;;;12.50;7.33;;;;;;;17.12;54.25;99814.66;5053674;28;41573;-79
2021/10/18 12:41:09;;;;;;;9.97;6.53;;;;;;;16.96;55.19;99798.00;5099938;28;42905;-80
2021/10/18 12:43:38;;;;;;;11.83;6.57;;;;;;;16.91;55.33;99794.84;5070850;28;42278;-84
2021/10/18 12:46:27;;;;;;;13.93;7.57;;;;;;;16.88;54.98;99812.81;5057188;28;40027;-84
2021/10/18 12:49:03;;;;;;;14.03;7.60;;;;;;;16.70;55.14;99802.59;5051179;28;41894;-84
2021/10/18 12:51:36;;;;;;;13.93;8.40;;;;;;;16.72;55.33;99814.88;5070916;28;42762;-79
2021/10/18 12:54:27;;;;;;;15.87;8.27;;;;;;;16.66;55.60;99818.03;5083402;28;42038;-79
2021/10/18 12:57:14;;;;;;;14.93;8.67;;;;;;;16.60;55.39;99813.06;5050456;28;40442;-78
2021/10/18 13:00:01;;;;;;;16.83;9.57;;;;;;;16.65;55.55;99794.91;5049075;28;40704;-78
2021/10/18 13:02:30;;;;;;;15.83;9.23;;;;;;;16.64;55.77;99798.56;5069450;28;43521;-80
2021/10/18 13:05:12;;;;;;;12.87;8.40;;;;;;;16.66;55.57;99796.63;5067198;28;43590;-79
2021/10/18 13:07:41;;;;;;;14.87;8.20;;;;;;;16.68;55.34;99800.06;5069623;28;39099;-77
2021/10/18 13:10:12;;;;;;;14.23;7.43;;;;;;;16.62;55.81;99800.47;5067099;28;42109;-79
2021/10/18 13:12:40;;;;;;;16.53;8.33;;;;;;;16.48;55.63;99790.75;5101854;28;42611;-81
2021/10/18 13:15:11;;;;;;;14.67;7.30;;;;;;;16.45;55.97;99790.09;5052473;28;41946;-79
2021/10/18 13:17:39;;;;;;;15.20;8.60;;;;;;;16.44;55.72;99804.47;5071163;28;40287;-84
2021/10/18 13:20:08;;;;;;;14.00;7.23;;;;;;;16.27;56.03;99786.09;5052420;28;40914;-81
2021/10/18 13:22:36;;;;;;;12.17;7.60;;;;;;;16.12;55.97;99780.84;5069398;28;43766;-79
2021/10/18 13:25:05;;;;;;;16.87;8.57;;;;;;;16.21;56.11;99814.09;5068233;28;42498;-81
2021/10/18 13:27:33;;;;;;;13.20;7.47;;;;;;;15.95;55.87;99778.50;5054098;28;40420;-80
2021/10/18 13:30:00;;;;;;;13.10;7.17;;;;;;;16.03;56.16;99797.53;5051845;28;40759;-81
2021/10/18 13:32:29;;;;;;;15.27;7.67;;;;;;;16.06;56.65;99815.19;5053017;28;43025;-78
2021/10/18 13:34:57;;;;;;;13.40;8.00;;;;;;;15.89;56.28;99797.63;5103088;27;43032;-80
2021/10/18 13:37:26;;;;;;;12.23;7.20;;;;;;;15.71;56.38;99773.03;5052613;28;39647;-78
2021/10/18 13:39:57;;;;;;;13.67;7.63;;;;;;;15.79;56.65;99789.41;5068519;28;40576;-83
2021/10/18 13:42:25;;;;;;;11.00;7.77;;;;;;;15.83;56.46;99800.72;5052245;28;41981;-78
2021/10/18 13:44:53;;;;;;;10.87;6.73;;;;;;;15.75;56.83;99792.38;5073120;28;42325;-84
2021/10/18 13:47:20;;;;;;;12.33;6.97;;;;;;;15.69;56.42;99779.47;5055303;28;39275;-79
2021/10/18 13:49:50;;;;;;;10.70;6.83;;;;;;;15.87;56.69;99823.59;5068446;28;41068;-82
2021/10/18 13:52:17;;;;;;;16.97;7.87;;;;;;;15.79;56.76;99816.13;5053143;28;41922;-85
2021/10/18 13:54:45;;;;;;;11.83;6.33;;;;;;;15.42;56.79;99764.34;5051604;28;41550;-80
2021/10/18 13:57:13;;;;;;;14.20;8.87;;;;;;;15.80;57.01;99819.66;5072591;28;40749;-84
2021/10/18 13:59:41;;;;;;;11.53;7.10;;;;;;;15.84;57.19;99820.28;5051271;28;41370;-83
2021/10/18 14:02:14;;;;;;;10.87;6.40;;;;;;;15.67;56.66;99795.59;5051429;28;41420;-83
2021/10/18 14:04:43;;;;;;;9.33;6.87;;;;;;;15.75;56.99;99800.41;5035617;28;41773;-81
2021/10/18 14:07:14;;;;;;;12.50;6.37;;;;;;;15.79;56.86;99818.78;5068536;28;39861;-81
2021/10/18 14:09:43;;;;;;;14.63;8.27;;;;;;;15.64;57.24;99800.28;5068189;28;40894;-79
2021/10/18 14:12:28;;;;;;;10.80;6.20;;;;;;;15.56;57.46;99778.59;5053240;28;42188;-84
2021/10/18 14:14:55;;;;;;;12.17;7.13;;;;;;;15.76;57.11;99820.81;5054740;28;41520;-86
2021/10/18 14:17:23;;;;;;;10.40;6.90;;;;;;;15.67;57.35;99805.44;5069937;28;39083;-84
2021/10/18 14:19:52;;;;;;;8.73;5.50;;;;;;;15.77;57.60;99809.16;5051498;28;40971;-84
2021/10/18 14:22:21;;;;;;;11.63;6.03;;;;;;;15.65;57.62;99794.84;5048356;28;42185;-79
2021/10/18 14:24:49;;;;;;;11.67;6.27;;;;;;;15.69;57.70;99815.06;5100784;27;43270;-82
2021/10/18 14:27:17;;;;;;;9.93;5.27;;;;;;;15.65;57.34;99813.53;5051727;28;39158;-80
2021/10/18 14:29:44;;;;;;;12.77;6.70;;;;;;;15.51;57.41;99804.72;5053147;28;40692;-81
2021/10/18 14:32:33;;;;;;;11.80;6.73;;;;;;;15.22;58.05;99767.47;5050672;28;43213;-85
2021/10/18 14:35:01;;;;;;;12.43;5.70;;;;;;;15.18;58.31;99774.00;5051443;28;40909;-86
2021/10/18 14:37:31;;;;;;;10.97;5.83;;;;;;;15.25;58.75;99775.28;5035609;28;38963;-80
2021/10/18 14:39:59;;;;;;;10.47;6.30;;;;;;;15.29;58.65;99779.47;5067101;28;41699;-77
2021/10/18 14:42:27;;;;;;;11.37;6.30;;;;;;;15.31;58.54;99782.03;5067563;28;41885;-78
2021/10/18 14:44:54;;;;;;;11.03;5.47;;;;;;;15.33;58.57;99791.63;5051236;28;41292;-81
2021/10/18 14:47:22;;;;;;;11.17;5.27;;;;;;;15.22;58.34;99766.63;5068195;28;39521;-81
2021/10/18 14:49:49;;;;;;;7.93;4.50;;;;;;;15.23;58.22;99782.53;5067835;28;40865;-80
2021/10/18 14:52:17;;;;;;;9.80;4.47;;;;;;;15.32;58.35;99787.28;5068142;28;42614;-82
2021/10/18 14:54:48;;;;;;;11.53;5.37;;;;;;;15.23;58.41;99763.00;5071838;28;41366;-84
2021/10/18 14:57:16;;;;;;;7.77;4.20;;;;;;;15.34;58.38;99780.00;5055586;28;39920;-78
2021/10/18 14:59:44;;;;;;;9.40;5.67;;;;;;;15.21;58.47;99763.09;5084346;28;41198;-79
2021/10/18 15:02:12;;;;;;;8.67;4.90;;;;;;;15.23;58.61;99769.19;5062647;28;42493;-80
2021/10/18 15:04:40;;;;;;;6.20;4.20;;;;;;;15.31;58.61;99779.38;5050641;28;40598;-85
2021/10/18 15:07:09;;;;;;;7.63;4.90;;;;;;;15.29;58.19;99779.47;5084654;28;40499;-87
2021/10/18 15:09:37;;;;;;;9.47;4.27;;;;;;;15.26;58.45;99782.34;5068790;28;41783;-83
2021/10/18 15:12:06;;;;;;;6.60;4.63;;;;;;;15.11;58.35;99775.34;5068772;28;43601;-81
2021/10/18 15:14:34;;;;;;;6.40;4.10;;;;;;;15.16;58.58;99799.94;5051331;28;41329;-81
2021/10/18 15:17:03;;;;;;;6.33;3.70;;;;;;;15.06;58.71;99790.81;5071452;28;39877;-82
2021/10/18 15:19:31;;;;;;;8.37;4.77;;;;;;;15.05;58.82;99803.31;5053537;28;41108;-80
2021/10/18 15:21:58;;;;;;;10.77;4.87;;;;;;;15.01;59.23;99796.44;5050382;28;41633;-84
2021/10/18 15:24:26;;;;;;;7.80;5.00;;;;;;;14.91;58.99;99782.00;5102387;27;42432;-78
2021/10/18 15:26:53;;;;;;;7.87;5.23;;;;;;;14.76;59.11;99760.81;5067882;28;39919;-77
2021/10/18 15:29:23;;;;;;;9.73;6.90;;;;;;;14.74;59.11;99775.09;5066801;28;41790;-78
2021/10/18 15:31:52;;;;;;;10.53;4.90;;;;;;;14.58;59.59;99765.56;5049079;28;42229;-80
2021/10/18 15:34:20;;;;;;;7.60;5.00;;;;;;;14.60;59.62;99777.81;5050000;28;40832;-79
2021/10/18 15:36:47;;;;;;;6.37;4.20;;;;;;;14.46;60.04;99743.22;5101471;28;39581;-79
2021/10/18 15:39:16;;;;;;;6.50;4.70;;;;;;;14.51;59.95;99759.75;5050576;28;41716;-81
2021/10/18 15:41:43;;;;;;;9.30;4.43;;;;;;;14.44;60.21;99752.25;5067860;28;41651;-82
2021/10/18 15:44:12;;;;;;;8.33;4.70;;;;;;;14.37;60.35;99751.72;5067053;28;42310;-78
2021/10/18 15:46:42;;;;;;;7.20;5.17;;;;;;;14.17;60.25;99725.50;5067366;28;40765;-77
2021/10/18 15:49:09;;;;;;;11.23;6.37;;;;;;;14.10;60.26;99730.34;5101600;28;42468;-79
2021/10/18 15:51:37;;;;;;;5.83;3.87;;;;;;;14.03;60.38;99724.56;5050070;28;42144;-78
2021/10/18 15:54:05;;;;;;;6.83;3.80;;;;;;;14.09;60.43;99730.47;5067239;28;42864;-77
2021/10/18 15:56:34;;;;;;;9.43;4.57;;;;;;;14.10;60.81;99733.03;5066661;28;39985;-79
2021/10/18 15:59:02;;;;;;;10.20;4.50;;;;;;;14.07;61.13;99721.72;5085001;28;40777;-80
2021/10/18 16:01:31;;;;;;;7.47;4.23;;;;;;;13.96;60.88;99723.25;5050595;28;41790;-79
2021/10/18 16:04:00;;;;;;;10.30;5.70;;;;;;;13.80;61.24;99695.88;5067435;28;42490;-80
2021/10/18 16:06:28;;;;;;;10.67;6.47;;;;;;;13.75;61.69;99695.28;5051142;28;38864;-82
2021/10/18 16:08:56;;;;;;;9.27;6.30;;;;;;;13.34;62.13;99657.06;5050170;28;42017;-81
2021/10/18 16:11:23;;;;;;;8.83;4.33;;;;;;;13.42;62.46;99708.00;5066653;28;43144;-76
2021/10/18 16:13:51;;;;;;;5.93;3.77;;;;;;;13.19;62.47;99696.94;5067053;28;40664;-79
2021/10/18 16:16:18;;;;;;;8.90;4.73;;;;;;;13.18;62.73;99700.56;5050073;28;38622;-77
2021/10/18 16:18:47;;;;;;;9.13;4.77;;;;;;;13.07;63.00;99708.28;5068705;28;41745;-80